sensor_id;sensor_type;location;lat;lon;timestamp;temperature;humidity
65637;DHT22;52327;42.622;23.316;2022-10-28T00:01:37;10.79;67.50
65637;DHT22;52327;42.622;23.316;2022-10-28T00:04:03;10.76;67.72
65637;DHT22;52327;42.622;23.316;2022-10-28T00:06:31;10.61;68.20
65637;DHT22;52327;42.622;23.316;2022-10-28T00:08:57;10.63;68.15
65637;DHT22;52327;42.622;23.316;2022-10-28T00:11:31;10.85;67.21
65637;DHT22;52327;42.622;23.316;2022-10-28T00:13:58;10.96;67.30
65637;DHT22;52327;42.622;23.316;2022-10-28T00:16:26;10.92;67.37
65637;DHT22;52327;42.622;23.316;2022-10-28T00:18:52;10.85;67.78
65637;DHT22;52327;42.622;23.316;2022-10-28T00:21:21;10.83;67.76
65637;DHT22;52327;42.622;23.316;2022-10-28T00:23:47;10.89;67.44
65637;DHT22;52327;42.622;23.316;2022-10-28T00:26:15;10.79;67.59
65637;DHT22;52327;42.622;23.316;2022-10-28T00:28:48;10.86;67.41
65637;DHT22;52327;42.622;23.316;2022-10-28T00:31:16;10.96;67.03
65637;DHT22;52327;42.622;23.316;2022-10-28T00:33:42;10.92;67.53
65637;DHT22;52327;42.622;23.316;2022-10-28T00:36:29;10.76;67.76
65637;DHT22;52327;42.622;23.316;2022-10-28T00:38:57;10.77;67.13
65637;DHT22;52327;42.622;23.316;2022-10-28T00:41:31;10.72;67.46
65637;DHT22;52327;42.622;23.316;2022-10-28T00:44:36;10.65;67.61
65637;DHT22;52327;42.622;23.316;2022-10-28T00:46:48;10.63;67.87
65637;DHT22;52327;42.622;23.316;2022-10-28T00:49:26;10.46;68.63
65637;DHT22;52327;42.622;23.316;2022-10-28T00:51:58;10.18;69.64
65637;DHT22;52327;42.622;23.316;2022-10-28T00:54:26;10.17;69.92
65637;DHT22;52327;42.622;23.316;2022-10-28T00:56:55;10.24;69.80
65637;DHT22;52327;42.622;23.316;2022-10-28T00:59:25;10.22;69.67
65637;DHT22;52327;42.622;23.316;2022-10-28T01:01:51;10.24;69.44
65637;DHT22;52327;42.622;23.316;2022-10-28T01:04:17;10.18;69.58
65637;DHT22;52327;42.622;23.316;2022-10-28T01:06:43;10.07;70.03
65637;DHT22;52327;42.622;23.316;2022-10-28T01:09:09;9.97;70.39
65637;DHT22;52327;42.622;23.316;2022-10-28T01:22:37;9.66;70.96
65637;DHT22;52327;42.622;23.316;2022-10-28T01:31:12;9.49;71.13
65637;DHT22;52327;42.622;23.316;2022-10-28T01:41:37;9.50;71.45
65637;DHT22;52327;42.622;23.316;2022-10-28T01:44:09;9.52;71.51
65637;DHT22;52327;42.622;23.316;2022-10-28T01:47:00;9.39;71.58
65637;DHT22;52327;42.622;23.316;2022-10-28T01:49:32;9.40;71.67
65637;DHT22;52327;42.622;23.316;2022-10-28T01:52:05;9.33;71.95
65637;DHT22;52327;42.622;23.316;2022-10-28T01:54:33;9.22;71.87
65637;DHT22;52327;42.622;23.316;2022-10-28T01:57:02;9.26;71.49
65637;DHT22;52327;42.622;23.316;2022-10-28T01:59:28;9.32;71.36
65637;DHT22;52327;42.622;23.316;2022-10-28T02:01:55;9.32;71.06
65637;DHT22;52327;42.622;23.316;2022-10-28T02:04:21;9.29;71.27
65637;DHT22;52327;42.622;23.316;2022-10-28T02:06:50;9.28;71.07
65637;DHT22;52327;42.622;23.316;2022-10-28T02:23:41;9.64;69.97
65637;DHT22;52327;42.622;23.316;2022-10-28T02:31:23;9.54;70.52
65637;DHT22;52327;42.622;23.316;2022-10-28T02:33:54;9.47;70.53
65637;DHT22;52327;42.622;23.316;2022-10-28T02:36:22;9.44;70.65
65637;DHT22;52327;42.622;23.316;2022-10-28T02:38:53;9.50;70.50
65637;DHT22;52327;42.622;23.316;2022-10-28T02:41:23;9.42;70.77
65637;DHT22;52327;42.622;23.316;2022-10-28T02:43:53;9.28;71.15
65637;DHT22;52327;42.622;23.316;2022-10-28T02:46:20;9.26;71.24
65637;DHT22;52327;42.622;23.316;2022-10-28T02:48:49;9.25;71.49
65637;DHT22;52327;42.622;23.316;2022-10-28T02:51:28;9.29;71.43
65637;DHT22;52327;42.622;23.316;2022-10-28T02:54:04;9.23;71.29
65637;DHT22;52327;42.622;23.316;2022-10-28T02:56:37;9.15;71.80
65637;DHT22;52327;42.622;23.316;2022-10-28T02:59:08;9.12;71.92
65637;DHT22;52327;42.622;23.316;2022-10-28T03:01:35;9.05;72.39
65637;DHT22;52327;42.622;23.316;2022-10-28T03:04:00;8.93;72.80
65637;DHT22;52327;42.622;23.316;2022-10-28T03:06:26;8.95;72.77
65637;DHT22;52327;42.622;23.316;2022-10-28T03:08:51;8.92;72.78
65637;DHT22;52327;42.622;23.316;2022-10-28T03:11:17;8.87;73.20
65637;DHT22;52327;42.622;23.316;2022-10-28T03:13:44;8.78;73.29
65637;DHT22;52327;42.622;23.316;2022-10-28T03:16:09;8.71;73.47
65637;DHT22;52327;42.622;23.316;2022-10-28T03:18:35;8.71;73.50
65637;DHT22;52327;42.622;23.316;2022-10-28T03:21:00;8.64;73.72
65637;DHT22;52327;42.622;23.316;2022-10-28T03:23:25;8.65;73.66
65637;DHT22;52327;42.622;23.316;2022-10-28T03:25:51;8.82;73.03
65637;DHT22;52327;42.622;23.316;2022-10-28T03:28:16;8.85;72.98
65637;DHT22;52327;42.622;23.316;2022-10-28T03:30:41;8.97;72.58
65637;DHT22;52327;42.622;23.316;2022-10-28T03:33:07;9.01;72.45
65637;DHT22;52327;42.622;23.316;2022-10-28T03:35:32;8.99;72.56
65637;DHT22;52327;42.622;23.316;2022-10-28T03:37:58;8.97;72.68
65637;DHT22;52327;42.622;23.316;2022-10-28T03:40:23;8.82;72.97
65637;DHT22;52327;42.622;23.316;2022-10-28T03:42:49;8.70;73.43
65637;DHT22;52327;42.622;23.316;2022-10-28T03:45:14;8.67;73.58
65637;DHT22;52327;42.622;23.316;2022-10-28T03:47:39;8.61;73.71
65637;DHT22;52327;42.622;23.316;2022-10-28T03:50:05;8.61;74.01
65637;DHT22;52327;42.622;23.316;2022-10-28T03:52:31;8.60;73.94
65637;DHT22;52327;42.622;23.316;2022-10-28T03:54:56;8.70;73.73
65637;DHT22;52327;42.622;23.316;2022-10-28T03:57:22;8.67;73.63
65637;DHT22;52327;42.622;23.316;2022-10-28T03:59:47;8.71;73.79
65637;DHT22;52327;42.622;23.316;2022-10-28T04:02:13;8.70;73.69
65637;DHT22;52327;42.622;23.316;2022-10-28T04:04:40;8.61;74.03
65637;DHT22;52327;42.622;23.316;2022-10-28T04:07:05;8.53;74.18
65637;DHT22;52327;42.622;23.316;2022-10-28T04:09:30;8.58;73.94
65637;DHT22;52327;42.622;23.316;2022-10-28T04:11:56;8.64;73.76
65637;DHT22;52327;42.622;23.316;2022-10-28T04:14:21;8.74;73.54
65637;DHT22;52327;42.622;23.316;2022-10-28T04:16:47;8.77;73.50
65637;DHT22;52327;42.622;23.316;2022-10-28T04:19:12;8.78;73.46
65637;DHT22;52327;42.622;23.316;2022-10-28T04:21:38;8.71;73.80
65637;DHT22;52327;42.622;23.316;2022-10-28T04:24:04;8.71;73.49
65637;DHT22;52327;42.622;23.316;2022-10-28T04:26:29;8.71;73.77
65637;DHT22;52327;42.622;23.316;2022-10-28T04:28:56;8.70;73.63
65637;DHT22;52327;42.622;23.316;2022-10-28T04:31:21;8.67;73.62
65637;DHT22;52327;42.622;23.316;2022-10-28T04:33:47;8.68;73.61
65637;DHT22;52327;42.622;23.316;2022-10-28T04:36:12;8.57;73.84
65637;DHT22;52327;42.622;23.316;2022-10-28T04:38:38;8.41;74.53
65637;DHT22;52327;42.622;23.316;2022-10-28T04:41:03;8.27;75.12
65637;DHT22;52327;42.622;23.316;2022-10-28T04:43:28;8.14;75.75
65637;DHT22;52327;42.622;23.316;2022-10-28T04:45:54;8.12;76.02
65637;DHT22;52327;42.622;23.316;2022-10-28T04:48:20;8.17;76.00
65637;DHT22;52327;42.622;23.316;2022-10-28T04:50:45;8.22;75.67
65637;DHT22;52327;42.622;23.316;2022-10-28T04:53:11;8.12;75.81
65637;DHT22;52327;42.622;23.316;2022-10-28T04:55:37;8.12;75.71
65637;DHT22;52327;42.622;23.316;2022-10-28T04:58:02;8.03;76.04
65637;DHT22;52327;42.622;23.316;2022-10-28T05:00:28;7.97;76.39
65637;DHT22;52327;42.622;23.316;2022-10-28T05:02:54;7.96;76.57
65637;DHT22;52327;42.622;23.316;2022-10-28T05:05:20;7.95;76.77
65637;DHT22;52327;42.622;23.316;2022-10-28T05:07:45;7.96;77.05
65637;DHT22;52327;42.622;23.316;2022-10-28T05:10:11;8.09;76.86
65637;DHT22;52327;42.622;23.316;2022-10-28T05:12:43;8.23;76.50
65637;DHT22;52327;42.622;23.316;2022-10-28T05:15:10;8.25;76.32
65637;DHT22;52327;42.622;23.316;2022-10-28T05:17:43;8.32;76.17
65637;DHT22;52327;42.622;23.316;2022-10-28T05:20:10;8.46;75.71
65637;DHT22;52327;42.622;23.316;2022-10-28T05:22:36;8.65;75.15
65637;DHT22;52327;42.622;23.316;2022-10-28T05:25:02;8.65;75.13
65637;DHT22;52327;42.622;23.316;2022-10-28T05:27:27;8.63;75.48
65637;DHT22;52327;42.622;23.316;2022-10-28T05:29:52;8.67;75.37
65637;DHT22;52327;42.622;23.316;2022-10-28T05:32:18;8.75;75.40
65637;DHT22;52327;42.622;23.316;2022-10-28T05:34:43;8.81;75.66
65637;DHT22;52327;42.622;23.316;2022-10-28T05:37:09;8.95;75.40
65637;DHT22;52327;42.622;23.316;2022-10-28T05:39:35;9.04;75.13
65637;DHT22;52327;42.622;23.316;2022-10-28T05:42:00;9.20;74.88
65637;DHT22;52327;42.622;23.316;2022-10-28T05:44:26;9.35;74.33
65637;DHT22;52327;42.622;23.316;2022-10-28T05:46:51;9.46;74.08
65637;DHT22;52327;42.622;23.316;2022-10-28T05:49:18;9.53;74.08
65637;DHT22;52327;42.622;23.316;2022-10-28T05:51:47;9.67;73.71
65637;DHT22;52327;42.622;23.316;2022-10-28T05:54:13;9.73;73.66
65637;DHT22;52327;42.622;23.316;2022-10-28T05:56:38;9.77;73.33
65637;DHT22;52327;42.622;23.316;2022-10-28T05:59:04;9.77;73.64
65637;DHT22;52327;42.622;23.316;2022-10-28T06:01:29;9.90;73.61
65637;DHT22;52327;42.622;23.316;2022-10-28T06:03:54;10.00;73.27
65637;DHT22;52327;42.622;23.316;2022-10-28T06:06:20;10.12;73.08
65637;DHT22;52327;42.622;23.316;2022-10-28T06:08:45;10.21;73.02
65637;DHT22;52327;42.622;23.316;2022-10-28T06:11:11;10.14;73.11
65637;DHT22;52327;42.622;23.316;2022-10-28T06:13:36;10.08;73.12
65637;DHT22;52327;42.622;23.316;2022-10-28T06:16:01;10.03;73.39
65637;DHT22;52327;42.622;23.316;2022-10-28T06:18:27;10.15;73.08
65637;DHT22;52327;42.622;23.316;2022-10-28T06:20:54;10.20;72.76
65637;DHT22;52327;42.622;23.316;2022-10-28T06:23:21;10.12;73.02
65637;DHT22;52327;42.622;23.316;2022-10-28T06:25:46;10.14;72.99
65637;DHT22;52327;42.622;23.316;2022-10-28T06:28:11;10.14;73.07
65637;DHT22;52327;42.622;23.316;2022-10-28T06:30:37;10.17;73.02
65637;DHT22;52327;42.622;23.316;2022-10-28T06:33:02;10.15;73.20
65637;DHT22;52327;42.622;23.316;2022-10-28T06:35:28;10.20;73.07
65637;DHT22;52327;42.622;23.316;2022-10-28T06:37:56;10.24;72.93
65637;DHT22;52327;42.622;23.316;2022-10-28T06:40:23;10.24;72.94
65637;DHT22;52327;42.622;23.316;2022-10-28T06:42:57;10.22;73.04
65637;DHT22;52327;42.622;23.316;2022-10-28T06:45:22;10.28;73.01
65637;DHT22;52327;42.622;23.316;2022-10-28T06:47:48;10.37;72.70
65637;DHT22;52327;42.622;23.316;2022-10-28T06:50:13;10.41;72.60
65637;DHT22;52327;42.622;23.316;2022-10-28T06:52:39;10.49;72.36
65637;DHT22;52327;42.622;23.316;2022-10-28T06:55:04;10.56;72.16
65637;DHT22;52327;42.622;23.316;2022-10-28T06:57:30;10.66;71.84
65637;DHT22;52327;42.622;23.316;2022-10-28T08:28:52;12.36;66.99
65637;DHT22;52327;42.622;23.316;2022-10-28T08:31:17;12.67;66.15
65637;DHT22;52327;42.622;23.316;2022-10-28T08:33:45;12.75;65.69
65637;DHT22;52327;42.622;23.316;2022-10-28T08:36:13;12.86;65.53
65637;DHT22;52327;42.622;23.316;2022-10-28T08:38:39;12.93;65.50
65637;DHT22;52327;42.622;23.316;2022-10-28T08:41:26;13.00;64.33
65637;DHT22;52327;42.622;23.316;2022-10-28T08:44:23;13.07;64.71
65637;DHT22;52327;42.622;23.316;2022-10-28T08:49:20;13.19;63.88
65637;DHT22;52327;42.622;23.316;2022-10-28T08:52:10;13.12;64.26
65637;DHT22;52327;42.622;23.316;2022-10-28T08:54:50;13.28;63.98
65637;DHT22;52327;42.622;23.316;2022-10-28T08:57:22;13.38;63.06
65637;DHT22;52327;42.622;23.316;2022-10-28T08:59:51;13.45;63.43
65637;DHT22;52327;42.622;23.316;2022-10-28T09:02:43;13.72;62.56
65637;DHT22;52327;42.622;23.316;2022-10-28T09:05:20;13.95;62.13
65637;DHT22;52327;42.622;23.316;2022-10-28T09:07:46;13.87;62.03
65637;DHT22;52327;42.622;23.316;2022-10-28T09:10:13;13.90;62.19
65637;DHT22;52327;42.622;23.316;2022-10-28T09:18:42;14.10;61.69
65637;DHT22;52327;42.622;23.316;2022-10-28T09:21:43;14.41;60.43
65637;DHT22;52327;42.622;23.316;2022-10-28T09:24:27;14.47;60.06
65637;DHT22;52327;42.622;23.316;2022-10-28T09:30:03;14.51;59.73
65637;DHT22;52327;42.622;23.316;2022-10-28T09:35:02;14.84;59.54
65637;DHT22;52327;42.622;23.316;2022-10-28T09:37:34;14.93;59.16
65637;DHT22;52327;42.622;23.316;2022-10-28T09:40:06;14.99;58.65
65637;DHT22;52327;42.622;23.316;2022-10-28T09:42:59;14.71;58.61
65637;DHT22;52327;42.622;23.316;2022-10-28T09:45:30;14.59;58.97
65637;DHT22;52327;42.622;23.316;2022-10-28T09:48:08;14.85;59.32
65637;DHT22;52327;42.622;23.316;2022-10-28T09:50:36;15.05;58.85
65637;DHT22;52327;42.622;23.316;2022-10-28T09:55:59;15.42;56.81
65637;DHT22;52327;42.622;23.316;2022-10-28T09:58:26;15.60;56.29
65637;DHT22;52327;42.622;23.316;2022-10-28T10:00:51;15.64;55.68
65637;DHT22;52327;42.622;23.316;2022-10-28T10:03:17;15.66;55.35
65637;DHT22;52327;42.622;23.316;2022-10-28T10:05:46;15.66;54.64
65637;DHT22;52327;42.622;23.316;2022-10-28T10:08:15;15.50;55.36
65637;DHT22;52327;42.622;23.316;2022-10-28T10:10:54;15.42;56.38
65637;DHT22;52327;42.622;23.316;2022-10-28T10:13:24;15.38;55.94
65637;DHT22;52327;42.622;23.316;2022-10-28T10:15:54;15.31;56.22
65637;DHT22;52327;42.622;23.316;2022-10-28T10:18:24;15.28;56.43
65637;DHT22;52327;42.622;23.316;2022-10-28T10:20:53;15.56;55.92
65637;DHT22;52327;42.622;23.316;2022-10-28T10:23:28;15.73;55.03
65637;DHT22;52327;42.622;23.316;2022-10-28T10:26:15;16.03;53.63
65637;DHT22;52327;42.622;23.316;2022-10-28T10:28:48;16.03;53.73
65637;DHT22;52327;42.622;23.316;2022-10-28T10:31:21;16.13;53.75
65637;DHT22;52327;42.622;23.316;2022-10-28T10:33:49;16.21;53.77
65637;DHT22;52327;42.622;23.316;2022-10-28T10:36:16;16.31;53.69
65637;DHT22;52327;42.622;23.316;2022-10-28T10:38:51;16.25;53.23
65637;DHT22;52327;42.622;23.316;2022-10-28T10:41:37;16.17;53.75
65637;DHT22;52327;42.622;23.316;2022-10-28T10:44:24;16.18;53.35
65637;DHT22;52327;42.622;23.316;2022-10-28T10:49:19;16.29;52.92
65637;DHT22;52327;42.622;23.316;2022-10-28T10:51:52;16.15;52.66
65637;DHT22;52327;42.622;23.316;2022-10-28T10:54:19;16.18;53.56
65637;DHT22;52327;42.622;23.316;2022-10-28T10:56:44;16.34;52.88
65637;DHT22;52327;42.622;23.316;2022-10-28T10:59:25;16.47;53.08
65637;DHT22;52327;42.622;23.316;2022-10-28T11:01:51;16.68;52.05
65637;DHT22;52327;42.622;23.316;2022-10-28T11:04:18;16.73;51.37
65637;DHT22;52327;42.622;23.316;2022-10-28T11:06:51;16.54;51.86
65637;DHT22;52327;42.622;23.316;2022-10-28T11:09:33;16.51;51.70
65637;DHT22;52327;42.622;23.316;2022-10-28T11:11:59;16.55;51.31
65637;DHT22;52327;42.622;23.316;2022-10-28T11:14:27;16.68;51.70
65637;DHT22;52327;42.622;23.316;2022-10-28T11:17:01;16.76;50.05
65637;DHT22;52327;42.622;23.316;2022-10-28T11:19:33;16.65;50.32
65637;DHT22;52327;42.622;23.316;2022-10-28T11:22:15;16.79;50.76
65637;DHT22;52327;42.622;23.316;2022-10-28T11:28:16;17.12;49.47
65637;DHT22;52327;42.622;23.316;2022-10-28T11:36:36;17.23;47.86
65637;DHT22;52327;42.622;23.316;2022-10-28T11:39:28;17.33;47.55
65637;DHT22;52327;42.622;23.316;2022-10-28T11:50:32;17.57;43.87
65637;DHT22;52327;42.622;23.316;2022-10-28T11:58:32;17.31;45.23
65637;DHT22;52327;42.622;23.316;2022-10-28T12:01:08;17.50;45.71
65637;DHT22;52327;42.622;23.316;2022-10-28T12:06:16;18.01;45.12
65637;DHT22;52327;42.622;23.316;2022-10-28T12:11:50;18.28;43.57
65637;DHT22;52327;42.622;23.316;2022-10-28T12:20:25;18.49;44.08
65637;DHT22;52327;42.622;23.316;2022-10-28T12:22:56;18.96;43.11
65637;DHT22;52327;42.622;23.316;2022-10-28T12:25:28;19.10;42.49
65637;DHT22;52327;42.622;23.316;2022-10-28T12:27:59;18.89;42.73
65637;DHT22;52327;42.622;23.316;2022-10-28T12:30:30;19.07;42.53
65637;DHT22;52327;42.622;23.316;2022-10-28T12:35:40;19.24;41.24
65637;DHT22;52327;42.622;23.316;2022-10-28T12:38:34;19.17;41.00
65637;DHT22;52327;42.622;23.316;2022-10-28T12:41:12;18.93;41.65
65637;DHT22;52327;42.622;23.316;2022-10-28T12:43:42;18.61;42.38
65637;DHT22;52327;42.622;23.316;2022-10-28T12:57:41;17.85;43.59
65637;DHT22;52327;42.622;23.316;2022-10-28T13:00:27;17.55;44.55
65637;DHT22;52327;42.622;23.316;2022-10-28T13:03:06;17.48;44.37
65637;DHT22;52327;42.622;23.316;2022-10-28T13:16:33;18.04;45.62
65637;DHT22;52327;42.622;23.316;2022-10-28T13:25:21;17.44;47.66
65637;DHT22;52327;42.622;23.316;2022-10-28T13:27:56;17.50;47.16
65637;DHT22;52327;42.622;23.316;2022-10-28T13:30:22;17.50;47.33
65637;DHT22;52327;42.622;23.316;2022-10-28T13:33:08;17.58;47.59
65637;DHT22;52327;42.622;23.316;2022-10-28T13:35:34;17.67;47.23
65637;DHT22;52327;42.622;23.316;2022-10-28T13:38:01;17.38;47.78
65637;DHT22;52327;42.622;23.316;2022-10-28T13:42:55;16.97;48.62
65637;DHT22;52327;42.622;23.316;2022-10-28T13:53:50;15.94;51.11
65637;DHT22;52327;42.622;23.316;2022-10-28T13:58:53;15.79;51.67
65637;DHT22;52327;42.622;23.316;2022-10-28T14:01:37;15.60;51.81
65637;DHT22;52327;42.622;23.316;2022-10-28T14:04:04;15.52;52.13
65637;DHT22;52327;42.622;23.316;2022-10-28T14:06:31;15.46;52.30
65637;DHT22;52327;42.622;23.316;2022-10-28T14:08:57;15.32;52.54
65637;DHT22;52327;42.622;23.316;2022-10-28T14:11:24;15.15;52.54
65637;DHT22;52327;42.622;23.316;2022-10-28T14:13:55;15.16;52.71
65637;DHT22;52327;42.622;23.316;2022-10-28T14:16:35;15.16;52.91
65637;DHT22;52327;42.622;23.316;2022-10-28T14:24:31;14.84;53.57
65637;DHT22;52327;42.622;23.316;2022-10-28T14:29:47;14.45;54.73
65637;DHT22;52327;42.622;23.316;2022-10-28T14:43:42;14.38;53.89
65637;DHT22;52327;42.622;23.316;2022-10-28T14:46:26;14.20;54.27
65637;DHT22;52327;42.622;23.316;2022-10-28T14:48:57;14.29;54.01
65637;DHT22;52327;42.622;23.316;2022-10-28T14:51:25;14.40;53.83
65637;DHT22;52327;42.622;23.316;2022-10-28T14:53:58;14.33;54.19
65637;DHT22;52327;42.622;23.316;2022-10-28T14:56:29;14.24;54.37
65637;DHT22;52327;42.622;23.316;2022-10-28T15:02:01;14.12;54.64
65637;DHT22;52327;42.622;23.316;2022-10-28T15:04:28;13.87;55.00
65637;DHT22;52327;42.622;23.316;2022-10-28T15:06:54;13.82;55.34
65637;DHT22;52327;42.622;23.316;2022-10-28T15:09:22;13.68;55.66
65637;DHT22;52327;42.622;23.316;2022-10-28T15:14:50;13.51;55.95
65637;DHT22;52327;42.622;23.316;2022-10-28T15:17:24;13.48;55.90
65637;DHT22;52327;42.622;23.316;2022-10-28T15:19:54;13.39;56.06
65637;DHT22;52327;42.622;23.316;2022-10-28T15:25:11;13.34;56.35
65637;DHT22;52327;42.622;23.316;2022-10-28T15:27:39;13.38;56.44
65637;DHT22;52327;42.622;23.316;2022-10-28T15:32:53;13.35;56.38
65637;DHT22;52327;42.622;23.316;2022-10-28T15:37:51;13.41;56.38
65637;DHT22;52327;42.622;23.316;2022-10-28T15:40:25;13.29;56.48
65637;DHT22;52327;42.622;23.316;2022-10-28T15:43:05;13.24;56.73
65637;DHT22;52327;42.622;23.316;2022-10-28T15:45:32;13.19;57.06
65637;DHT22;52327;42.622;23.316;2022-10-28T15:48:00;13.01;57.44
65637;DHT22;52327;42.622;23.316;2022-10-28T15:50:33;13.00;57.47
65637;DHT22;52327;42.622;23.316;2022-10-28T15:55:34;12.88;57.72
65637;DHT22;52327;42.622;23.316;2022-10-28T15:58:02;12.86;57.96
65637;DHT22;52327;42.622;23.316;2022-10-28T16:00:54;12.94;57.77
65637;DHT22;52327;42.622;23.316;2022-10-28T16:03:39;13.01;57.37
65637;DHT22;52327;42.622;23.316;2022-10-28T16:06:06;12.93;57.86
65637;DHT22;52327;42.622;23.316;2022-10-28T16:08:41;12.83;58.23
65637;DHT22;52327;42.622;23.316;2022-10-28T16:11:13;12.80;58.32
65637;DHT22;52327;42.622;23.316;2022-10-28T16:13:47;12.80;58.28
65637;DHT22;52327;42.622;23.316;2022-10-28T16:16:14;12.83;58.18
65637;DHT22;52327;42.622;23.316;2022-10-28T16:18:52;13.00;56.70
65637;DHT22;52327;42.622;23.316;2022-10-28T16:21:23;13.06;57.32
65637;DHT22;52327;42.622;23.316;2022-10-28T16:23:52;13.15;57.34
65637;DHT22;52327;42.622;23.316;2022-10-28T16:26:21;13.12;57.36
65637;DHT22;52327;42.622;23.316;2022-10-28T16:28:47;13.11;57.58
65637;DHT22;52327;42.622;23.316;2022-10-28T16:31:17;13.00;57.86
65637;DHT22;52327;42.622;23.316;2022-10-28T16:33:43;12.96;58.25
65637;DHT22;52327;42.622;23.316;2022-10-28T16:36:09;12.87;57.90
65637;DHT22;52327;42.622;23.316;2022-10-28T16:38:35;12.76;57.86
65637;DHT22;52327;42.622;23.316;2022-10-28T16:41:01;12.81;57.34
65637;DHT22;52327;42.622;23.316;2022-10-28T16:43:28;12.79;56.73
65637;DHT22;52327;42.622;23.316;2022-10-28T16:45:57;12.79;56.63
65637;DHT22;52327;42.622;23.316;2022-10-28T16:48:27;12.84;56.61
65637;DHT22;52327;42.622;23.316;2022-10-28T16:50:58;12.77;56.52
65637;DHT22;52327;42.622;23.316;2022-10-28T16:53:25;12.73;56.67
65637;DHT22;52327;42.622;23.316;2022-10-28T16:55:50;12.70;57.07
65637;DHT22;52327;42.622;23.316;2022-10-28T16:58:16;12.64;56.39
65637;DHT22;52327;42.622;23.316;2022-10-28T17:00:42;12.60;56.45
65637;DHT22;52327;42.622;23.316;2022-10-28T17:03:12;12.56;56.89
65637;DHT22;52327;42.622;23.316;2022-10-28T17:05:40;12.56;56.11
65637;DHT22;52327;42.622;23.316;2022-10-28T17:08:09;12.53;56.23
65637;DHT22;52327;42.622;23.316;2022-10-28T17:10:34;12.33;56.51
65637;DHT22;52327;42.622;23.316;2022-10-28T17:13:00;12.22;56.55
65637;DHT22;52327;42.622;23.316;2022-10-28T17:15:25;12.28;56.42
65637;DHT22;52327;42.622;23.316;2022-10-28T17:17:51;12.21;56.30
65637;DHT22;52327;42.622;23.316;2022-10-28T17:20:17;12.29;55.75
65637;DHT22;52327;42.622;23.316;2022-10-28T17:22:43;12.39;55.06
65637;DHT22;52327;42.622;23.316;2022-10-28T17:25:09;12.45;54.99
65637;DHT22;52327;42.622;23.316;2022-10-28T17:27:35;12.49;55.02
65637;DHT22;52327;42.622;23.316;2022-10-28T17:30:01;12.50;54.90
65637;DHT22;52327;42.622;23.316;2022-10-28T17:32:26;12.40;55.16
65637;DHT22;52327;42.622;23.316;2022-10-28T17:34:52;12.26;55.18
65637;DHT22;52327;42.622;23.316;2022-10-28T17:37:17;12.21;55.65
65637;DHT22;52327;42.622;23.316;2022-10-28T17:39:43;12.16;55.85
65637;DHT22;52327;42.622;23.316;2022-10-28T17:42:08;12.01;56.04
65637;DHT22;52327;42.622;23.316;2022-10-28T17:44:34;11.92;55.94
65637;DHT22;52327;42.622;23.316;2022-10-28T17:46:59;11.85;56.35
65637;DHT22;52327;42.622;23.316;2022-10-28T17:49:25;11.78;56.47
65637;DHT22;52327;42.622;23.316;2022-10-28T17:51:51;11.88;56.50
65637;DHT22;52327;42.622;23.316;2022-10-28T17:54:16;11.98;56.34
65637;DHT22;52327;42.622;23.316;2022-10-28T17:56:42;11.92;56.52
65637;DHT22;52327;42.622;23.316;2022-10-28T17:59:08;11.92;56.37
65637;DHT22;52327;42.622;23.316;2022-10-28T18:01:34;12.06;55.73
65637;DHT22;52327;42.622;23.316;2022-10-28T18:04:00;12.19;55.78
65637;DHT22;52327;42.622;23.316;2022-10-28T18:06:25;12.15;55.89
65637;DHT22;52327;42.622;23.316;2022-10-28T18:08:51;12.06;56.04
65637;DHT22;52327;42.622;23.316;2022-10-28T18:11:17;12.09;56.10
65637;DHT22;52327;42.622;23.316;2022-10-28T18:13:45;11.88;56.43
65637;DHT22;52327;42.622;23.316;2022-10-28T18:16:18;11.81;56.62
65637;DHT22;52327;42.622;23.316;2022-10-28T18:18:43;11.75;56.96
65637;DHT22;52327;42.622;23.316;2022-10-28T18:21:12;11.71;57.21
65637;DHT22;52327;42.622;23.316;2022-10-28T18:23:38;11.74;56.84
65637;DHT22;52327;42.622;23.316;2022-10-28T18:28:31;11.82;56.86
65637;DHT22;52327;42.622;23.316;2022-10-28T18:31:09;11.88;56.71
65637;DHT22;52327;42.622;23.316;2022-10-28T18:33:36;11.84;57.49
65637;DHT22;52327;42.622;23.316;2022-10-28T18:36:04;11.64;58.31
65637;DHT22;52327;42.622;23.316;2022-10-28T18:38:30;11.61;58.18
65637;DHT22;52327;42.622;23.316;2022-10-28T18:40:55;11.64;58.08
65637;DHT22;52327;42.622;23.316;2022-10-28T18:43:21;11.67;57.69
65637;DHT22;52327;42.622;23.316;2022-10-28T18:45:48;11.73;57.54
65637;DHT22;52327;42.622;23.316;2022-10-28T18:48:13;11.68;57.90
65637;DHT22;52327;42.622;23.316;2022-10-28T18:50:39;11.57;58.01
65637;DHT22;52327;42.622;23.316;2022-10-28T18:53:04;11.54;57.97
65637;DHT22;52327;42.622;23.316;2022-10-28T18:55:30;11.57;58.20
65637;DHT22;52327;42.622;23.316;2022-10-28T18:57:55;11.53;57.85
65637;DHT22;52327;42.622;23.316;2022-10-28T19:00:21;11.55;57.67
65637;DHT22;52327;42.622;23.316;2022-10-28T19:02:46;11.51;57.90
65637;DHT22;52327;42.622;23.316;2022-10-28T19:05:12;11.44;57.93
65637;DHT22;52327;42.622;23.316;2022-10-28T19:07:37;11.44;58.19
65637;DHT22;52327;42.622;23.316;2022-10-28T19:10:03;11.53;57.88
65637;DHT22;52327;42.622;23.316;2022-10-28T19:12:29;11.48;58.10
65637;DHT22;52327;42.622;23.316;2022-10-28T19:14:54;11.51;58.07
65637;DHT22;52327;42.622;23.316;2022-10-28T19:17:20;11.50;58.32
65637;DHT22;52327;42.622;23.316;2022-10-28T19:19:45;11.54;58.47
65637;DHT22;52327;42.622;23.316;2022-10-28T19:22:13;11.65;58.20
65637;DHT22;52327;42.622;23.316;2022-10-28T19:24:39;11.73;57.99
65637;DHT22;52327;42.622;23.316;2022-10-28T19:27:04;11.77;57.60
65637;DHT22;52327;42.622;23.316;2022-10-28T19:29:29;11.79;57.65
65637;DHT22;52327;42.622;23.316;2022-10-28T19:31:55;11.79;57.54
65637;DHT22;52327;42.622;23.316;2022-10-28T19:34:20;11.82;57.53
65637;DHT22;52327;42.622;23.316;2022-10-28T19:36:46;11.89;57.49
65637;DHT22;52327;42.622;23.316;2022-10-28T19:39:11;11.98;57.39
65637;DHT22;52327;42.622;23.316;2022-10-28T19:41:37;11.99;57.50
65637;DHT22;52327;42.622;23.316;2022-10-28T19:44:03;11.94;57.89
65637;DHT22;52327;42.622;23.316;2022-10-28T19:46:30;11.85;58.39
65637;DHT22;52327;42.622;23.316;2022-10-28T19:48:58;11.82;58.66
65637;DHT22;52327;42.622;23.316;2022-10-28T19:51:28;11.95;58.17
65637;DHT22;52327;42.622;23.316;2022-10-28T19:53:58;11.96;58.27
65637;DHT22;52327;42.622;23.316;2022-10-28T19:56:24;11.99;58.28
65637;DHT22;52327;42.622;23.316;2022-10-28T19:58:52;11.88;58.81
65637;DHT22;52327;42.622;23.316;2022-10-28T20:01:19;11.95;58.44
65637;DHT22;52327;42.622;23.316;2022-10-28T20:03:45;11.86;58.81